Time,TemperatureF,DewpointF,PressureIn,WindDirection,WindDirectionDegrees,WindSpeedMPH,WindSpeedGustMPH,Humidity,HourlyPrecipIn,Conditions,Clouds,dailyrainin,SoftwareType,DateUTC
2013-02-01 00:00:00,-1.9,-7.3,30.52,NW,315,0.0,0.0,77,0.00,,,0.00,LWC V2.10 B1813,2013-02-01 06:00:00,
2013-02-01 00:10:00,-1.9,-7.3,30.52,NW,315,0.0,0.0,77,0.00,,,0.00,LWC V2.10 B1813,2013-02-01 06:10:00,
2013-02-01 00:20:00,-2.1,-7.2,30.52,NW,315,0.0,0.0,78,0.00,,,0.00,LWC V2.10 B1813,2013-02-01 06:20:00,
2013-02-01 00:30:00,-2.4,-7.5,30.53,NW,315,0.0,0.0,78,0.00,,,0.00,LWC V2.10 B1813,2013-02-01 06:30:00,
2013-02-01 00:40:00,-2.4,-7.5,30.53,NW,315,0.0,0.0,78,0.00,,,0.00,LWC V2.10 B1813,2013-02-01 06:40:00,
2013-02-01 00:50:00,-2.6,-7.2,30.53,WSW,248,0.0,1.0,80,0.00,,,0.00,LWC V2.10 B1813,2013-02-01 06:50:00,
2013-02-01 01:00:00,-2.5,-7.4,30.53,South,180,0.0,1.0,79,0.00,,,0.00,LWC V2.10 B1813,2013-02-01 07:00:00,
2013-02-01 01:10:00,-2.5,-7.4,30.53,South,180,0.0,1.0,79,0.00,,,0.00,LWC V2.10 B1813,2013-02-01 07:10:00,
2013-02-01 01:20:00,-2.4,-7.3,30.52,South,180,0.0,0.0,79,0.00,,,0.00,LWC V2.10 B1813,2013-02-01 07:20:00,
2013-02-01 01:30:00,-2.4,-7.3,30.52,South,180,0.0,0.0,79,0.00,,,0.00,LWC V2.10 B1813,2013-02-01 07:30:00,
2013-02-01 01:40:00,-2.3,-7.2,30.51,South,180,0.0,0.0,79,0.00,,,0.00,LWC V2.10 B1813,2013-02-01 07:40:00,
2013-02-01 01:50:00,-2.6,-7.5,30.51,South,180,0.0,0.0,79,0.00,,,0.00,LWC V2.10 B1813,2013-02-01 07:50:00,
2013-02-01 02:00:00,-2.6,-7.5,30.51,South,180,0.0,0.0,79,0.00,,,0.00,LWC V2.10 B1813,2013-02-01 08:00:00,
2013-02-01 02:10:00,-2.4,-7.0,30.51,South,180,0.0,0.0,80,0.00,,,0.00,LWC V2.10 B1813,2013-02-01 08:10:00,
2013-02-01 02:20:00,-2.7,-7.6,30.51,South,180,0.0,0.0,79,0.00,,,0.00,LWC V2.10 B1813,2013-02-01 08:20:00,
2013-02-01 02:30:00,-2.7,-7.6,30.51,South,180,0.0,0.0,79,0.00,,,0.00,LWC V2.10 B1813,2013-02-01 08:30:00,
2013-02-01 02:40:00,-3.4,-8.0,30.50,South,180,0.0,0.0,80,0.00,,,0.00,LWC V2.10 B1813,2013-02-01 08:40:00,
2013-02-01 02:50:00,-3.2,-7.3,30.50,South,180,0.0,0.0,82,0.00,,,0.00,LWC V2.10 B1813,2013-02-01 08:50:00,
2013-02-01 03:00:00,-3.2,-7.3,30.50,South,180,0.0,0.0,82,0.00,,,0.00,LWC V2.10 B1813,2013-02-01 09:00:00,
2013-02-01 03:10:00,-3.0,-7.1,30.48,South,180,0.0,0.0,82,0.00,,,0.00,LWC V2.10 B1813,2013-02-01 09:10:00,
2013-02-01 03:20:00,-3.2,-7.3,30.48,South,180,0.0,0.0,82,0.00,,,0.00,LWC V2.10 B1813,2013-02-01 09:20:00,
2013-02-01 03:30:00,-3.2,-7.3,30.48,South,180,0.0,0.0,82,0.00,,,0.00,LWC V2.10 B1813,2013-02-01 09:30:00,
2013-02-01 03:40:00,-3.4,-7.2,30.48,South,180,0.0,0.0,83,0.00,,,0.00,LWC V2.10 B1813,2013-02-01 09:40:00,
2013-02-01 03:50:00,-3.8,-7.6,30.48,South,180,0.0,0.0,83,0.00,,,0.00,LWC V2.10 B1813,2013-02-01 09:50:00,
2013-02-01 04:00:00,-3.8,-7.6,30.48,South,180,0.0,0.0,83,0.00,,,0.00,LWC V2.10 B1813,2013-02-01 10:00:00,
2013-02-01 04:10:00,-3.9,-7.5,30.49,South,180,0.0,0.0,84,0.00,,,0.00,LWC V2.10 B1813,2013-02-01 10:10:00,
2013-02-01 04:20:00,-2.9,-6.3,30.49,South,180,0.0,0.0,85,0.00,,,0.00,LWC V2.10 B1813,2013-02-01 10:20:00,
2013-02-01 04:30:00,-2.9,-6.3,30.49,South,180,0.0,0.0,85,0.00,,,0.00,LWC V2.10 B1813,2013-02-01 10:30:00,
2013-02-01 04:40:00,-1.0,-4.4,30.49,ENE,68,0.0,1.0,85,0.00,,,0.00,LWC V2.10 B1813,2013-02-01 10:40:00,
2013-02-01 04:50:00,-0.2,-4.1,30.48,ENE,68,0.0,1.0,83,0.00,,,0.00,LWC V2.10 B1813,2013-02-01 10:50:00,
2013-02-01 05:00:00,-0.2,-4.1,30.48,ENE,68,0.0,1.0,83,0.00,,,0.00,LWC V2.10 B1813,2013-02-01 11:00:00,
2013-02-01 05:10:00,0.6,-3.6,30.48,SW,225,0.0,1.0,82,0.00,,,0.00,LWC V2.10 B1813,2013-02-01 11:10:00,
2013-02-01 05:20:00,1.1,-3.3,30.47,ENE,68,0.0,1.0,81,0.00,,,0.00,LWC V2.10 B1813,2013-02-01 11:20:00,
2013-02-01 05:30:00,1.5,-3.5,30.47,ENE,68,0.0,2.0,79,0.00,,,0.00,LWC V2.10 B1813,2013-02-01 11:30:00,
2013-02-01 05:40:00,1.5,-3.5,30.47,ENE,68,0.0,2.0,79,0.00,,,0.00,LWC V2.10 B1813,2013-02-01 11:40:00,
2013-02-01 05:50:00,1.8,-3.4,30.46,ENE,68,0.0,2.0,78,0.00,,,0.00,LWC V2.10 B1813,2013-02-01 11:50:00,
2013-02-01 06:00:00,2.1,-3.2,30.47,ENE,68,0.0,0.0,78,0.00,,,0.00,LWC V2.10 B1813,2013-02-01 12:00:00,
2013-02-01 06:10:00,2.1,-3.2,30.47,ENE,68,0.0,0.0,78,0.00,,,0.00,LWC V2.10 B1813,2013-02-01 12:10:00,
2013-02-01 06:20:00,2.4,-2.9,30.47,NE,45,0.0,2.0,78,0.00,,,0.00,LWC V2.10 B1813,2013-02-01 12:20:00,
2013-02-01 06:30:00,2.6,-2.7,30.47,ENE,68,0.0,2.0,78,0.00,,,0.00,LWC V2.10 B1813,2013-02-01 12:30:00,
2013-02-01 06:40:00,2.6,-2.7,30.47,ENE,68,0.0,2.0,78,0.00,,,0.00,LWC V2.10 B1813,2013-02-01 12:40:00,
2013-02-01 06:50:00,3.0,-2.5,30.46,ENE,68,1.0,3.0,77,0.00,,,0.00,LWC V2.10 B1813,2013-02-01 12:50:00,
2013-02-01 07:00:00,3.3,-2.3,30.46,ENE,68,1.0,3.0,77,0.00,,,0.00,LWC V2.10 B1813,2013-02-01 13:00:00,
2013-02-01 07:10:00,3.3,-2.3,30.46,ENE,68,1.0,3.0,77,0.00,,,0.00,LWC V2.10 B1813,2013-02-01 13:10:00,
2013-02-01 07:20:00,3.5,-2.3,30.45,ENE,68,0.0,3.0,76,0.00,,,0.00,LWC V2.10 B1813,2013-02-01 13:20:00,
2013-02-01 07:30:00,3.7,-2.4,30.44,East,90,0.0,2.0,75,0.00,,,0.00,LWC V2.10 B1813,2013-02-01 13:30:00,
2013-02-01 07:40:00,3.7,-2.4,30.44,East,90,0.0,2.0,75,0.00,,,0.00,LWC V2.10 B1813,2013-02-01 13:40:00,
2013-02-01 07:50:00,4.1,-2.0,30.44,ENE,68,0.0,2.0,75,0.00,,,0.00,LWC V2.10 B1813,2013-02-01 13:50:00,
2013-02-01 08:00:00,4.4,-2.0,30.44,ENE,68,1.0,3.0,74,0.00,,,0.00,LWC V2.10 B1813,2013-02-01 14:00:00,
2013-02-01 08:10:00,4.4,-2.0,30.44,ENE,68,1.0,3.0,74,0.00,,,0.00,LWC V2.10 B1813,2013-02-01 14:10:00,
2013-02-01 08:20:00,4.6,-2.1,30.44,ENE,68,1.0,3.0,73,0.00,,,0.00,LWC V2.10 B1813,2013-02-01 14:20:00,
2013-02-01 08:30:00,4.6,-2.1,30.44,ENE,68,1.0,3.0,73,0.00,,,0.00,LWC V2.10 B1813,2013-02-01 14:30:00,
2013-02-01 08:40:00,4.7,-2.0,30.44,ENE,68,1.0,3.0,73,0.00,,,0.00,LWC V2.10 B1813,2013-02-01 14:40:00,
2013-02-01 08:50:00,5.0,-2.0,30.43,ENE,68,1.0,3.0,72,0.00,,,0.00,LWC V2.10 B1813,2013-02-01 14:50:00,
2013-02-01 09:00:00,5.0,-2.0,30.43,ENE,68,1.0,3.0,72,0.00,,,0.00,LWC V2.10 B1813,2013-02-01 15:00:00,
2013-02-01 09:10:00,5.8,-1.5,30.43,ENE,68,1.0,5.0,71,0.00,,,0.00,LWC V2.10 B1813,2013-02-01 15:10:00,
2013-02-01 09:20:00,6.5,-1.2,30.42,ENE,68,1.0,3.0,70,0.00,,,0.00,LWC V2.10 B1813,2013-02-01 15:20:00,
2013-02-01 09:30:00,6.5,-1.2,30.42,ENE,68,1.0,3.0,70,0.00,,,0.00,LWC V2.10 B1813,2013-02-01 15:30:00,
2013-02-01 09:40:00,7.0,-1.0,30.42,ENE,68,1.0,5.0,69,0.00,,,0.00,LWC V2.10 B1813,2013-02-01 15:40:00,
2013-02-01 09:50:00,7.5,-0.5,30.41,ENE,68,2.0,6.0,69,0.00,,,0.00,LWC V2.10 B1813,2013-02-01 15:50:00,
2013-02-01 10:00:00,7.5,-0.5,30.41,ENE,68,2.0,6.0,69,0.00,,,0.00,LWC V2.10 B1813,2013-02-01 16:00:00,
2013-02-01 10:10:00,8.1,-0.2,30.41,ENE,68,2.0,6.0,68,0.00,,,0.00,LWC V2.10 B1813,2013-02-01 16:10:00,
2013-02-01 10:20:00,8.6,0.2,30.40,ENE,68,2.0,6.0,68,0.00,,,0.00,LWC V2.10 B1813,2013-02-01 16:20:00,
2013-02-01 10:30:00,8.6,0.2,30.40,ENE,68,2.0,6.0,68,0.00,,,0.00,LWC V2.10 B1813,2013-02-01 16:30:00,
2013-02-01 10:40:00,9.1,1.0,30.39,ENE,68,2.0,5.0,69,0.00,,,0.00,LWC V2.10 B1813,2013-02-01 16:40:00,
2013-02-01 10:50:00,9.7,1.3,30.38,ENE,68,2.0,6.0,68,0.00,,,0.00,LWC V2.10 B1813,2013-02-01 16:50:00,
2013-02-01 11:00:00,9.7,1.3,30.38,ENE,68,2.0,6.0,68,0.00,,,0.00,LWC V2.10 B1813,2013-02-01 17:00:00,
2013-02-01 11:10:00,9.8,1.4,30.37,ENE,68,2.0,7.0,68,0.00,,,0.00,LWC V2.10 B1813,2013-02-01 17:10:00,
2013-02-01 11:20:00,10.2,2.1,30.37,ENE,68,2.0,7.0,69,0.00,,,0.00,LWC V2.10 B1813,2013-02-01 17:20:00,
2013-02-01 11:30:00,10.2,2.1,30.37,ENE,68,2.0,7.0,69,0.00,,,0.00,LWC V2.10 B1813,2013-02-01 17:30:00,
2013-02-01 11:40:00,10.9,3.1,30.36,ENE,68,2.0,7.0,70,0.00,,,0.00,LWC V2.10 B1813,2013-02-01 17:40:00,
2013-02-01 11:50:00,12.8,4.6,30.34,ENE,68,2.0,8.0,69,0.00,,,0.00,LWC V2.10 B1813,2013-02-01 17:50:00,
2013-02-01 12:00:00,14.1,5.8,30.34,ENE,68,1.0,5.0,69,0.00,,,0.00,LWC V2.10 B1813,2013-02-01 18:00:00,
2013-02-01 12:10:00,14.1,5.8,30.34,ENE,68,1.0,5.0,69,0.00,,,0.00,LWC V2.10 B1813,2013-02-01 18:10:00,
2013-02-01 12:20:00,14.8,6.5,30.32,ENE,68,2.0,5.0,69,0.00,,,0.00,LWC V2.10 B1813,2013-02-01 18:20:00,
2013-02-01 12:30:00,16.1,7.8,30.31,ENE,68,2.0,8.0,69,0.00,,,0.00,LWC V2.10 B1813,2013-02-01 18:30:00,
2013-02-01 12:40:00,16.1,7.8,30.31,ENE,68,2.0,8.0,69,0.00,,,0.00,LWC V2.10 B1813,2013-02-01 18:40:00,
2013-02-01 12:50:00,17.3,8.9,30.29,ENE,68,2.0,6.0,69,0.00,,,0.00,LWC V2.10 B1813,2013-02-01 18:50:00,
2013-02-01 13:00:00,17.7,9.3,30.27,ENE,68,3.0,7.0,69,0.00,,,0.00,LWC V2.10 B1813,2013-02-01 19:00:00,
2013-02-01 13:10:00,17.7,9.3,30.27,ENE,68,3.0,7.0,69,0.00,,,0.00,LWC V2.10 B1813,2013-02-01 19:10:00,
2013-02-01 13:20:00,18.2,10.1,30.26,ENE,68,3.0,8.0,70,0.00,,,0.00,LWC V2.10 B1813,2013-02-01 19:20:00,
2013-02-01 13:30:00,19.1,11.6,30.25,ENE,68,3.0,6.0,72,0.00,,,0.00,LWC V2.10 B1813,2013-02-01 19:30:00,
2013-02-01 13:40:00,19.1,11.6,30.25,ENE,68,3.0,6.0,72,0.00,,,0.00,LWC V2.10 B1813,2013-02-01 19:40:00,
2013-02-01 13:50:00,20.7,13.4,30.23,ENE,68,3.0,9.0,73,0.00,,,0.00,LWC V2.10 B1813,2013-02-01 19:50:00,
2013-02-01 14:00:00,22.9,15.9,30.23,ENE,68,2.0,8.0,74,0.00,,,0.00,LWC V2.10 B1813,2013-02-01 20:00:00,
2013-02-01 14:10:00,22.9,15.9,30.23,ENE,68,2.0,8.0,74,0.00,,,0.00,LWC V2.10 B1813,2013-02-01 20:10:00,
2013-02-01 14:20:00,24.8,17.4,30.23,NE,45,3.0,7.0,73,0.00,,,0.00,LWC V2.10 B1813,2013-02-01 20:20:00,
2013-02-01 14:30:00,25.5,17.7,30.22,ENE,68,3.0,9.0,72,0.00,,,0.00,LWC V2.10 B1813,2013-02-01 20:30:00,
2013-02-01 14:40:00,25.5,17.7,30.22,ENE,68,3.0,9.0,72,0.00,,,0.00,LWC V2.10 B1813,2013-02-01 20:40:00,
2013-02-01 14:50:00,26.4,18.6,30.21,ENE,68,2.0,7.0,72,0.00,,,0.00,LWC V2.10 B1813,2013-02-01 20:50:00,
2013-02-01 15:00:00,26.4,18.6,30.21,ENE,68,2.0,7.0,72,0.00,,,0.00,LWC V2.10 B1813,2013-02-01 21:00:00,
2013-02-01 15:10:00,26.8,19.0,30.20,ENE,68,2.0,8.0,72,0.00,,,0.00,LWC V2.10 B1813,2013-02-01 21:10:00,
2013-02-01 15:20:00,26.7,18.2,30.20,ENE,68,3.0,9.0,70,0.00,,,0.00,LWC V2.10 B1813,2013-02-01 21:20:00,
2013-02-01 15:30:00,26.7,18.2,30.20,ENE,68,3.0,9.0,70,0.00,,,0.00,LWC V2.10 B1813,2013-02-01 21:30:00,
2013-02-01 15:40:00,26.6,18.5,30.20,NE,45,3.0,9.0,71,0.00,,,0.00,LWC V2.10 B1813,2013-02-01 21:40:00,
2013-02-01 15:50:00,26.8,18.4,30.19,ENE,68,3.0,11.0,70,0.00,,,0.00,LWC V2.10 B1813,2013-02-01 21:50:00,
2013-02-01 16:00:00,26.8,18.4,30.19,ENE,68,3.0,11.0,70,0.00,,,0.00,LWC V2.10 B1813,2013-02-01 22:00:00,
2013-02-01 16:10:00,26.9,18.8,30.19,ENE,68,2.0,9.0,71,0.00,,,0.00,LWC V2.10 B1813,2013-02-01 22:10:00,
2013-02-01 16:20:00,26.9,18.8,30.18,ENE,68,2.0,5.0,71,0.00,,,0.00,LWC V2.10 B1813,2013-02-01 22:20:00,
2013-02-01 16:30:00,26.9,18.8,30.18,ENE,68,2.0,5.0,71,0.00,,,0.00,LWC V2.10 B1813,2013-02-01 22:30:00,
2013-02-01 16:40:00,26.9,18.8,30.17,ENE,68,2.0,8.0,71,0.00,,,0.00,LWC V2.10 B1813,2013-02-01 22:40:00,
2013-02-01 16:50:00,27.0,18.5,30.16,ENE,68,2.0,8.0,70,0.00,,,0.00,LWC V2.10 B1813,2013-02-01 22:50:00,
2013-02-01 17:00:00,27.0,18.5,30.16,ENE,68,2.0,8.0,70,0.00,,,0.00,LWC V2.10 B1813,2013-02-01 23:00:00,
2013-02-01 17:10:00,26.8,18.4,30.16,ENE,68,3.0,7.0,70,0.00,,,0.00,LWC V2.10 B1813,2013-02-01 23:10:00,
2013-02-01 17:20:00,26.6,18.5,30.16,NE,45,3.0,8.0,71,0.00,,,0.00,LWC V2.10 B1813,2013-02-01 23:20:00,
2013-02-01 17:30:00,26.6,18.5,30.16,NE,45,3.0,8.0,71,0.00,,,0.00,LWC V2.10 B1813,2013-02-01 23:30:00,
2013-02-01 17:40:00,26.6,18.5,30.16,ENE,68,2.0,8.0,71,0.00,,,0.00,LWC V2.10 B1813,2013-02-01 23:40:00,
2013-02-01 17:50:00,26.5,18.4,30.16,ENE,68,2.0,5.0,71,0.00,,,0.00,LWC V2.10 B1813,2013-02-01 23:50:00,
2013-02-01 18:00:00,26.5,18.4,30.16,ENE,68,2.0,5.0,71,0.00,,,0.00,LWC V2.10 B1813,2013-02-02 00:00:00,
2013-02-01 18:10:00,26.5,18.4,30.16,ENE,68,3.0,7.0,71,0.00,,,0.00,LWC V2.10 B1813,2013-02-02 00:10:00,
2013-02-01 18:20:00,26.3,18.5,30.17,ENE,68,2.0,8.0,72,0.00,,,0.00,LWC V2.10 B1813,2013-02-02 00:20:00,
2013-02-01 18:30:00,26.3,18.5,30.17,ENE,68,2.0,8.0,72,0.00,,,0.00,LWC V2.10 B1813,2013-02-02 00:30:00,
2013-02-01 18:40:00,26.1,18.3,30.17,ENE,68,2.0,7.0,72,0.00,,,0.00,LWC V2.10 B1813,2013-02-02 00:40:00,
2013-02-01 18:50:00,25.9,18.5,30.16,ENE,68,1.0,7.0,73,0.00,,,0.00,LWC V2.10 B1813,2013-02-02 00:50:00,
2013-02-01 19:00:00,25.7,18.6,30.16,ENE,68,2.0,8.0,74,0.00,,,0.00,LWC V2.10 B1813,2013-02-02 01:00:00,
2013-02-01 19:10:00,25.7,18.6,30.16,ENE,68,2.0,8.0,74,0.00,,,0.00,LWC V2.10 B1813,2013-02-02 01:10:00,
2013-02-01 19:20:00,25.5,18.4,30.17,ENE,68,1.0,4.0,74,0.00,,,0.00,LWC V2.10 B1813,2013-02-02 01:20:00,
2013-02-01 19:30:00,25.4,18.3,30.16,ENE,68,1.0,4.0,74,0.00,,,0.00,LWC V2.10 B1813,2013-02-02 01:30:00,
2013-02-01 19:40:00,25.4,18.3,30.16,ENE,68,1.0,4.0,74,0.00,,,0.00,LWC V2.10 B1813,2013-02-02 01:40:00,
2013-02-01 19:50:00,25.5,18.7,30.16,ENE,68,1.0,5.0,75,0.00,,,0.00,LWC V2.10 B1813,2013-02-02 01:50:00,
2013-02-01 20:00:00,25.5,18.7,30.15,ENE,68,2.0,5.0,75,0.00,,,0.00,LWC V2.10 B1813,2013-02-02 02:00:00,
2013-02-01 20:10:00,25.5,18.7,30.15,ENE,68,2.0,5.0,75,0.00,,,0.00,LWC V2.10 B1813,2013-02-02 02:10:00,
2013-02-01 20:20:00,25.7,18.9,30.15,ENE,68,2.0,5.0,75,0.00,,,0.00,LWC V2.10 B1813,2013-02-02 02:20:00,
2013-02-01 20:30:00,25.7,18.9,30.15,ENE,68,1.0,4.0,75,0.00,,,0.00,LWC V2.10 B1813,2013-02-02 02:30:00,
2013-02-01 20:40:00,25.7,18.9,30.15,ENE,68,1.0,4.0,75,0.00,,,0.00,LWC V2.10 B1813,2013-02-02 02:40:00,
2013-02-01 20:50:00,25.8,19.0,30.15,NE,45,2.0,5.0,75,0.00,,,0.00,LWC V2.10 B1813,2013-02-02 02:50:00,
2013-02-01 21:00:00,26.0,18.9,30.15,ENE,68,2.0,6.0,74,0.00,,,0.00,LWC V2.10 B1813,2013-02-02 03:00:00,
2013-02-01 21:10:00,26.0,18.9,30.15,ENE,68,2.0,6.0,74,0.00,,,0.00,LWC V2.10 B1813,2013-02-02 03:10:00,
2013-02-01 21:20:00,25.9,18.8,30.15,ENE,68,1.0,5.0,74,0.00,,,0.00,LWC V2.10 B1813,2013-02-02 03:20:00,
2013-02-01 21:30:00,25.9,18.8,30.15,ENE,68,1.0,5.0,74,0.00,,,0.00,LWC V2.10 B1813,2013-02-02 03:30:00,
2013-02-01 21:40:00,25.9,18.8,30.15,ENE,68,2.0,9.0,74,0.00,,,0.00,LWC V2.10 B1813,2013-02-02 03:40:00,
2013-02-01 21:50:00,25.7,18.6,30.15,NE,45,1.0,6.0,74,0.00,,,0.00,LWC V2.10 B1813,2013-02-02 03:50:00,
2013-02-01 22:00:00,25.7,18.6,30.15,NE,45,1.0,6.0,74,0.00,,,0.00,LWC V2.10 B1813,2013-02-02 04:00:00,
2013-02-01 22:10:00,25.5,18.7,30.16,SW,225,1.0,3.0,75,0.00,,,0.00,LWC V2.10 B1813,2013-02-02 04:10:00,
2013-02-01 22:20:00,25.6,18.8,30.16,ENE,68,1.0,3.0,75,0.00,,,0.00,LWC V2.10 B1813,2013-02-02 04:20:00,
2013-02-01 22:30:00,25.6,18.8,30.16,ENE,68,1.0,3.0,75,0.00,,,0.00,LWC V2.10 B1813,2013-02-02 04:30:00,
2013-02-01 22:40:00,25.7,19.2,30.16,SW,225,1.0,3.0,76,0.00,,,0.00,LWC V2.10 B1813,2013-02-02 04:40:00,
2013-02-01 22:50:00,25.9,19.4,30.15,ENE,68,1.0,3.0,76,0.00,,,0.00,LWC V2.10 B1813,2013-02-02 04:50:00,
2013-02-01 23:00:00,25.9,19.4,30.15,ENE,68,1.0,3.0,76,0.00,,,0.00,LWC V2.10 B1813,2013-02-02 05:00:00,
2013-02-01 23:10:00,26.1,19.6,30.15,SSW,202,1.0,4.0,76,0.00,,,0.00,LWC V2.10 B1813,2013-02-02 05:10:00,
2013-02-01 23:20:00,26.4,19.9,30.15,SW,225,1.0,4.0,76,0.00,,,0.00,LWC V2.10 B1813,2013-02-02 05:20:00,
2013-02-01 23:30:00,26.4,19.9,30.15,SW,225,1.0,4.0,76,0.00,,,0.00,LWC V2.10 B1813,2013-02-02 05:30:00,
2013-02-01 23:40:00,26.5,20.0,30.14,SSW,202,1.0,4.0,76,0.00,,,0.00,LWC V2.10 B1813,2013-02-02 05:40:00,
2013-02-01 23:50:00,26.2,20.0,30.15,SW,225,0.0,2.0,77,0.00,,,0.00,LWC V2.10 B1813,2013-02-02 05:50:00,